This is the latest recevied weather packets stored in our database for station/object SP9SOY-2. If no packets are shown the sender has not sent any weather packets the latest 10 day(s).
| Time | Temp. | Humidity | Pressure | Rain* | Wind** | Luminosity | Snow |
|---|---|---|---|---|---|---|---|
| 1778248633 | 17.22° C | 23% | - | - | - | 124 W/m² | - |
| 1778246834 | 16.67° C | 24% | - | - | - | 146 W/m² | - |
| 1778245032 | 17.22° C | 23% | - | - | - | 168 W/m² | - |
| 1778243230 | 17.78° C | 23% | - | - | - | 149 W/m² | - |
| 1778241431 | 17.78° C | 23% | - | - | - | 130 W/m² | - |
| 1778239633 | 17.22° C | 24% | - | - | - | 140 W/m² | - |
| 1778237836 | 17.22° C | 24% | - | - | - | 150 W/m² | - |
| 1778236036 | 16.67° C | 24% | - | - | - | 185 W/m² | - |
| 1778234242 | 16.67° C | 25% | - | - | - | 220 W/m² | - |
| 1778232433 | 17.78° C | 24% | - | - | - | 150 W/m² | - |
| 1778230631 | 16.67° C | 26% | - | - | - | 80 W/m² | - |
| 1778228830 | 15.56° C | 28% | - | - | - | 141 W/m² | - |
| 1778227035 | 15.56° C | 27% | - | - | - | 202 W/m² | - |
| 1778225233 | 16.11° C | 28% | - | - | - | 145 W/m² | - |
| 1778223430 | 16.67° C | 29% | - | - | - | 88 W/m² | - |
| 1778221630 | 15° C | 34% | - | - | - | 98 W/m² | - |
| 1778219836 | 14.44° C | 36% | - | - | - | 108 W/m² | - |
| 1778218034 | 14.44° C | 37% | - | - | - | 54 W/m² | - |
| 1778191031 | 12.78° C | 40% | - | - | - | 0 W/m² | - |
| 1778189231 | 12.78° C | 39% | - | - | - | 0 W/m² | - |
| 1778187460 | 12.78° C | 39% | - | - | - | 0 W/m² | - |
| 1778185631 | 13.89° C | 37% | - | - | - | 0 W/m² | - |
| 1778182030 | 15.56° C | 35% | - | - | - | 0 W/m² | - |
| 1778180235 | 16.67° C | 34% | - | - | - | 0 W/m² | - |
| 1778178433 | 16.67° C | 30% | - | - | - | 9 W/m² | - |
* Rain since midnight (hover to see other rain measurements)
** Current wind speed in m/s (hover to see current wind gust speed)